sensor_id;sensor_type;location;lat;lon;timestamp;pressure;altitude;pressure_sealevel;temperature;humidity
74631;BME280;63138;55.082;38.804;2023-07-08T00:01:14;100305.13;;;18.80;100.00
74631;BME280;63138;55.082;38.804;2023-07-08T00:03:41;100292.47;;;18.79;100.00
74631;BME280;63138;55.082;38.804;2023-07-08T00:06:21;100288.88;;;18.78;100.00
74631;BME280;63138;55.082;38.804;2023-07-08T00:08:48;100315.97;;;18.75;100.00
74631;BME280;63138;55.082;38.804;2023-07-08T00:11:15;100286.16;;;18.71;100.00
74631;BME280;63138;55.082;38.804;2023-07-08T00:13:41;100295.03;;;18.73;100.00
74631;BME280;63138;55.082;38.804;2023-07-08T00:16:11;100295.88;;;18.74;100.00
74631;BME280;63138;55.082;38.804;2023-07-08T00:18:38;100299.47;;;18.75;100.00
74631;BME280;63138;55.082;38.804;2023-07-08T00:21:08;100327.41;;;18.71;100.00
74631;BME280;63138;55.082;38.804;2023-07-08T00:23:34;100308.78;;;18.73;100.00
74631;BME280;63138;55.082;38.804;2023-07-08T00:26:02;100301.59;;;18.72;100.00
74631;BME280;63138;55.082;38.804;2023-07-08T00:28:30;100305.00;;;18.68;100.00
74631;BME280;63138;55.082;38.804;2023-07-08T00:30:55;100316.84;;;18.68;100.00
74631;BME280;63138;55.082;38.804;2023-07-08T00:33:24;100313.91;;;18.63;100.00
74631;BME280;63138;55.082;38.804;2023-07-08T00:35:50;100327.44;;;18.65;100.00
74631;BME280;63138;55.082;38.804;2023-07-08T00:38:24;100321.31;;;18.63;100.00
74631;BME280;63138;55.082;38.804;2023-07-08T00:41:12;100316.47;;;18.58;100.00
74631;BME280;63138;55.082;38.804;2023-07-08T00:49:03;100298.34;;;18.50;100.00
74631;BME280;63138;55.082;38.804;2023-07-08T00:51:39;100297.72;;;18.48;100.00
74631;BME280;63138;55.082;38.804;2023-07-08T00:54:13;100295.41;;;18.45;100.00
74631;BME280;63138;55.082;38.804;2023-07-08T00:59:12;100302.41;;;18.41;100.00
74631;BME280;63138;55.082;38.804;2023-07-08T01:01:41;100293.75;;;18.38;100.00
74631;BME280;63138;55.082;38.804;2023-07-08T01:04:58;100294.19;;;18.34;100.00
74631;BME280;63138;55.082;38.804;2023-07-08T01:07:23;100299.28;;;18.31;100.00
74631;BME280;63138;55.082;38.804;2023-07-08T01:09:56;100317.50;;;18.25;100.00
74631;BME280;63138;55.082;38.804;2023-07-08T01:12:29;100309.03;;;18.27;100.00
74631;BME280;63138;55.082;38.804;2023-07-08T01:14:58;100299.34;;;18.24;100.00
74631;BME280;63138;55.082;38.804;2023-07-08T01:17:31;100297.63;;;18.23;100.00
74631;BME280;63138;55.082;38.804;2023-07-08T01:19:59;100288.34;;;18.24;100.00
74631;BME280;63138;55.082;38.804;2023-07-08T01:22:25;100284.53;;;18.25;100.00
74631;BME280;63138;55.082;38.804;2023-07-08T01:24:58;100308.19;;;18.26;100.00
74631;BME280;63138;55.082;38.804;2023-07-08T01:27:34;100303.53;;;18.33;100.00
74631;BME280;63138;55.082;38.804;2023-07-08T01:30:03;100306.88;;;18.36;100.00
74631;BME280;63138;55.082;38.804;2023-07-08T01:32:37;100313.22;;;18.36;100.00
74631;BME280;63138;55.082;38.804;2023-07-08T01:35:05;100308.13;;;18.40;100.00
74631;BME280;63138;55.082;38.804;2023-07-08T01:37:37;100306.63;;;18.44;100.00
74631;BME280;63138;55.082;38.804;2023-07-08T01:40:30;100339.00;;;18.42;100.00
74631;BME280;63138;55.082;38.804;2023-07-08T01:42:57;100329.69;;;18.43;100.00
74631;BME280;63138;55.082;38.804;2023-07-08T01:45:25;100332.53;;;18.61;100.00
74631;BME280;63138;55.082;38.804;2023-07-08T01:47:58;100345.69;;;18.59;100.00
74631;BME280;63138;55.082;38.804;2023-07-08T01:50:26;100325.19;;;18.55;100.00
74631;BME280;63138;55.082;38.804;2023-07-08T01:52:57;100330.88;;;18.60;100.00
74631;BME280;63138;55.082;38.804;2023-07-08T01:55:24;100339.53;;;18.64;100.00
74631;BME280;63138;55.082;38.804;2023-07-08T01:57:51;100368.28;;;18.61;100.00
74631;BME280;63138;55.082;38.804;2023-07-08T02:00:19;100339.75;;;18.62;100.00
74631;BME280;63138;55.082;38.804;2023-07-08T02:02:46;100349.03;;;18.61;100.00
74631;BME280;63138;55.082;38.804;2023-07-08T02:05:12;100370.22;;;18.61;100.00
74631;BME280;63138;55.082;38.804;2023-07-08T02:07:41;100347.31;;;18.67;100.00
74631;BME280;63138;55.082;38.804;2023-07-08T02:10:07;100344.75;;;18.72;100.00
74631;BME280;63138;55.082;38.804;2023-07-08T02:12:34;100360.44;;;18.71;100.00
74631;BME280;63138;55.082;38.804;2023-07-08T02:15:01;100398.50;;;18.75;100.00
74631;BME280;63138;55.082;38.804;2023-07-08T02:17:33;100364.63;;;18.74;100.00
74631;BME280;63138;55.082;38.804;2023-07-08T02:20:19;100392.97;;;18.81;100.00
74631;BME280;63138;55.082;38.804;2023-07-08T02:22:46;100403.09;;;18.81;100.00
74631;BME280;63138;55.082;38.804;2023-07-08T02:25:11;100402.72;;;18.84;100.00
74631;BME280;63138;55.082;38.804;2023-07-08T02:27:38;100417.91;;;18.86;100.00
74631;BME280;63138;55.082;38.804;2023-07-08T02:30:23;100417.47;;;18.96;100.00
74631;BME280;63138;55.082;38.804;2023-07-08T02:32:49;100420.38;;;19.01;100.00
74631;BME280;63138;55.082;38.804;2023-07-08T02:35:28;100435.63;;;19.04;100.00
74631;BME280;63138;55.082;38.804;2023-07-08T02:37:56;100427.56;;;19.02;100.00
74631;BME280;63138;55.082;38.804;2023-07-08T02:40:53;100429.91;;;19.05;100.00
74631;BME280;63138;55.082;38.804;2023-07-08T02:43:46;100442.56;;;19.06;100.00
74631;BME280;63138;55.082;38.804;2023-07-08T02:46:12;100407.41;;;19.08;100.00
74631;BME280;63138;55.082;38.804;2023-07-08T02:48:42;100401.88;;;19.15;100.00
74631;BME280;63138;55.082;38.804;2023-07-08T02:51:11;100416.84;;;19.26;100.00
74631;BME280;63138;55.082;38.804;2023-07-08T02:54:04;100407.31;;;19.28;100.00
74631;BME280;63138;55.082;38.804;2023-07-08T02:57:04;100399.25;;;19.27;100.00
74631;BME280;63138;55.082;38.804;2023-07-08T03:04:29;100378.41;;;19.13;100.00
74631;BME280;63138;55.082;38.804;2023-07-08T03:07:33;100352.94;;;19.17;100.00
74631;BME280;63138;55.082;38.804;2023-07-08T03:10:58;100345.38;;;19.13;100.00
74631;BME280;63138;55.082;38.804;2023-07-08T03:13:24;100331.41;;;19.14;100.00
74631;BME280;63138;55.082;38.804;2023-07-08T03:15:50;100330.53;;;19.14;100.00
74631;BME280;63138;55.082;38.804;2023-07-08T03:18:44;100324.63;;;19.10;100.00
74631;BME280;63138;55.082;38.804;2023-07-08T03:21:19;100314.94;;;19.07;100.00
74631;BME280;63138;55.082;38.804;2023-07-08T03:27:52;100331.41;;;19.14;100.00
74631;BME280;63138;55.082;38.804;2023-07-08T03:30:22;100346.59;;;19.17;100.00
74631;BME280;63138;55.082;38.804;2023-07-08T03:32:50;100309.31;;;19.21;100.00
74631;BME280;63138;55.082;38.804;2023-07-08T03:35:16;100304.00;;;19.19;100.00
74631;BME280;63138;55.082;38.804;2023-07-08T03:38:10;100305.88;;;19.25;100.00
74631;BME280;63138;55.082;38.804;2023-07-08T03:40:42;100296.50;;;19.33;100.00
74631;BME280;63138;55.082;38.804;2023-07-08T03:43:08;100329.25;;;19.41;100.00
74631;BME280;63138;55.082;38.804;2023-07-08T03:45:35;100314.22;;;19.37;100.00
74631;BME280;63138;55.082;38.804;2023-07-08T03:48:01;100395.59;;;19.33;100.00
74631;BME280;63138;55.082;38.804;2023-07-08T03:50:30;100337.19;;;19.31;100.00
74631;BME280;63138;55.082;38.804;2023-07-08T03:52:57;100350.28;;;19.36;100.00
74631;BME280;63138;55.082;38.804;2023-07-08T03:55:27;100331.00;;;19.36;100.00
74631;BME280;63138;55.082;38.804;2023-07-08T03:57:56;100341.31;;;19.40;100.00
74631;BME280;63138;55.082;38.804;2023-07-08T04:00:22;100351.47;;;19.46;100.00
74631;BME280;63138;55.082;38.804;2023-07-08T04:02:48;100351.47;;;19.46;100.00
74631;BME280;63138;55.082;38.804;2023-07-08T04:05:21;100355.25;;;19.45;100.00
74631;BME280;63138;55.082;38.804;2023-07-08T04:07:48;100358.19;;;19.51;100.00
74631;BME280;63138;55.082;38.804;2023-07-08T04:10:15;100402.03;;;19.52;100.00
74631;BME280;63138;55.082;38.804;2023-07-08T04:12:43;100350.53;;;19.53;100.00
74631;BME280;63138;55.082;38.804;2023-07-08T04:15:10;100360.50;;;19.54;100.00
74631;BME280;63138;55.082;38.804;2023-07-08T04:17:41;100361.81;;;19.44;100.00
74631;BME280;63138;55.082;38.804;2023-07-08T04:20:09;100352.38;;;19.34;100.00
74631;BME280;63138;55.082;38.804;2023-07-08T04:22:37;100362.88;;;19.25;100.00
74631;BME280;63138;55.082;38.804;2023-07-08T04:25:03;100324.47;;;19.30;100.00
74631;BME280;63138;55.082;38.804;2023-07-08T04:27:30;100299.03;;;19.35;100.00
74631;BME280;63138;55.082;38.804;2023-07-08T04:29:56;100296.00;;;19.43;100.00
74631;BME280;63138;55.082;38.804;2023-07-08T04:32:21;100295.13;;;19.42;100.00
74631;BME280;63138;55.082;38.804;2023-07-08T04:34:51;100267.91;;;19.34;100.00
74631;BME280;63138;55.082;38.804;2023-07-08T04:37:18;100213.56;;;19.23;100.00
74631;BME280;63138;55.082;38.804;2023-07-08T04:39:47;100206.91;;;19.12;100.00
74631;BME280;63138;55.082;38.804;2023-07-08T04:42:14;100224.13;;;19.07;100.00
74631;BME280;63138;55.082;38.804;2023-07-08T04:44:42;100215.69;;;19.02;100.00
74631;BME280;63138;55.082;38.804;2023-07-08T04:47:08;100209.13;;;19.03;100.00
74631;BME280;63138;55.082;38.804;2023-07-08T04:49:35;100201.47;;;19.05;100.00
74631;BME280;63138;55.082;38.804;2023-07-08T04:52:02;100187.34;;;19.02;100.00
74631;BME280;63138;55.082;38.804;2023-07-08T04:54:28;100205.34;;;18.98;100.00
74631;BME280;63138;55.082;38.804;2023-07-08T04:56:54;100139.41;;;18.91;100.00
74631;BME280;63138;55.082;38.804;2023-07-08T04:59:23;100081.09;;;18.76;100.00
74631;BME280;63138;55.082;38.804;2023-07-08T05:01:50;100072.25;;;18.73;100.00
74631;BME280;63138;55.082;38.804;2023-07-08T05:04:19;100074.53;;;18.77;100.00
74631;BME280;63138;55.082;38.804;2023-07-08T05:06:45;100084.00;;;18.81;100.00
74631;BME280;63138;55.082;38.804;2023-07-08T05:09:12;100102.25;;;18.82;100.00
74631;BME280;63138;55.082;38.804;2023-07-08T05:11:38;100100.53;;;18.81;100.00
74631;BME280;63138;55.082;38.804;2023-07-08T05:14:04;100107.50;;;18.83;100.00
74631;BME280;63138;55.082;38.804;2023-07-08T05:16:33;100100.09;;;18.84;100.00
74631;BME280;63138;55.082;38.804;2023-07-08T05:19:17;100112.78;;;18.85;100.00
74631;BME280;63138;55.082;38.804;2023-07-08T05:21:44;100097.34;;;18.84;100.00
74631;BME280;63138;55.082;38.804;2023-07-08T05:24:14;100094.38;;;18.85;100.00
74631;BME280;63138;55.082;38.804;2023-07-08T05:26:40;100119.97;;;18.86;100.00
74631;BME280;63138;55.082;38.804;2023-07-08T05:29:06;100103.09;;;18.82;100.00
74631;BME280;63138;55.082;38.804;2023-07-08T05:31:51;100093.75;;;18.83;100.00
74631;BME280;63138;55.082;38.804;2023-07-08T05:34:16;100070.91;;;18.83;100.00
74631;BME280;63138;55.082;38.804;2023-07-08T05:36:43;100061.97;;;18.87;100.00
74631;BME280;63138;55.082;38.804;2023-07-08T05:39:09;100043.56;;;18.88;100.00
74631;BME280;63138;55.082;38.804;2023-07-08T05:41:34;100050.03;;;18.94;100.00
74631;BME280;63138;55.082;38.804;2023-07-08T05:44:01;100072.88;;;18.94;100.00
74631;BME280;63138;55.082;38.804;2023-07-08T05:46:28;100022.69;;;18.99;100.00
74631;BME280;63138;55.082;38.804;2023-07-08T05:48:53;100022.00;;;19.03;100.00
74631;BME280;63138;55.082;38.804;2023-07-08T05:51:21;100002.28;;;19.06;100.00
74631;BME280;63138;55.082;38.804;2023-07-08T05:53:47;100002.88;;;19.08;100.00
74631;BME280;63138;55.082;38.804;2023-07-08T05:56:12;100035.06;;;19.08;100.00
74631;BME280;63138;55.082;38.804;2023-07-08T05:58:38;100026.97;;;19.13;100.00
74631;BME280;63138;55.082;38.804;2023-07-08T06:01:04;100027.34;;;19.17;100.00
74631;BME280;63138;55.082;38.804;2023-07-08T06:03:30;100014.56;;;19.22;100.00
74631;BME280;63138;55.082;38.804;2023-07-08T06:05:56;100006.22;;;19.29;100.00
74631;BME280;63138;55.082;38.804;2023-07-08T06:08:22;99999.63;;;19.30;100.00
74631;BME280;63138;55.082;38.804;2023-07-08T06:10:49;99969.13;;;19.32;100.00
74631;BME280;63138;55.082;38.804;2023-07-08T06:13:15;99969.13;;;19.32;100.00
74631;BME280;63138;55.082;38.804;2023-07-08T06:15:42;99936.56;;;19.28;100.00
74631;BME280;63138;55.082;38.804;2023-07-08T06:18:08;99935.94;;;19.26;100.00
74631;BME280;63138;55.082;38.804;2023-07-08T06:20:34;99938.31;;;19.23;100.00
74631;BME280;63138;55.082;38.804;2023-07-08T06:23:00;99905.91;;;19.25;100.00
74631;BME280;63138;55.082;38.804;2023-07-08T06:25:27;99898.13;;;19.22;100.00
74631;BME280;63138;55.082;38.804;2023-07-08T06:27:53;99879.56;;;19.17;100.00
74631;BME280;63138;55.082;38.804;2023-07-08T06:30:19;99879.56;;;19.17;100.00
74631;BME280;63138;55.082;38.804;2023-07-08T06:32:44;99853.34;;;19.15;100.00
74631;BME280;63138;55.082;38.804;2023-07-08T06:35:10;99885.06;;;19.17;100.00
74631;BME280;63138;55.082;38.804;2023-07-08T06:37:36;99853.81;;;19.12;100.00
74631;BME280;63138;55.082;38.804;2023-07-08T06:40:02;99841.59;;;19.07;100.00
74631;BME280;63138;55.082;38.804;2023-07-08T06:42:30;99842.34;;;19.15;100.00
74631;BME280;63138;55.082;38.804;2023-07-08T06:45:07;99823.09;;;19.15;100.00
74631;BME280;63138;55.082;38.804;2023-07-08T06:47:33;99811.34;;;19.19;100.00
74631;BME280;63138;55.082;38.804;2023-07-08T06:49:59;99813.28;;;19.19;100.00
74631;BME280;63138;55.082;38.804;2023-07-08T06:52:25;99847.03;;;19.26;100.00
74631;BME280;63138;55.082;38.804;2023-07-08T06:54:51;99865.00;;;19.28;100.00
74631;BME280;63138;55.082;38.804;2023-07-08T06:57:17;99831.84;;;19.35;100.00
74631;BME280;63138;55.082;38.804;2023-07-08T06:59:42;99827.56;;;19.39;100.00
74631;BME280;63138;55.082;38.804;2023-07-08T07:02:08;99851.00;;;19.42;100.00
74631;BME280;63138;55.082;38.804;2023-07-08T07:04:34;99827.31;;;19.53;100.00
74631;BME280;63138;55.082;38.804;2023-07-08T07:07:01;99806.72;;;19.67;100.00
74631;BME280;63138;55.082;38.804;2023-07-08T07:09:27;99840.97;;;19.71;100.00
74631;BME280;63138;55.082;38.804;2023-07-08T07:11:53;99814.53;;;19.70;100.00
74631;BME280;63138;55.082;38.804;2023-07-08T07:14:19;99807.31;;;19.69;100.00
74631;BME280;63138;55.082;38.804;2023-07-08T07:16:45;99834.41;;;19.72;100.00
74631;BME280;63138;55.082;38.804;2023-07-08T07:19:11;99810.44;;;19.73;100.00
74631;BME280;63138;55.082;38.804;2023-07-08T07:21:37;99795.13;;;19.77;100.00
74631;BME280;63138;55.082;38.804;2023-07-08T07:24:03;99773.69;;;19.79;100.00
74631;BME280;63138;55.082;38.804;2023-07-08T07:26:29;99775.00;;;19.76;100.00
74631;BME280;63138;55.082;38.804;2023-07-08T07:28:56;99749.41;;;19.76;100.00
74631;BME280;63138;55.082;38.804;2023-07-08T07:31:22;99741.47;;;19.79;100.00
74631;BME280;63138;55.082;38.804;2023-07-08T07:33:48;99752.28;;;19.81;100.00
74631;BME280;63138;55.082;38.804;2023-07-08T07:36:14;99749.75;;;19.79;100.00
74631;BME280;63138;55.082;38.804;2023-07-08T07:38:40;99741.59;;;19.84;100.00
74631;BME280;63138;55.082;38.804;2023-07-08T07:41:06;99727.31;;;19.88;100.00
74631;BME280;63138;55.082;38.804;2023-07-08T07:43:35;99721.69;;;19.82;100.00
74631;BME280;63138;55.082;38.804;2023-07-08T07:46:02;99750.69;;;19.85;100.00
74631;BME280;63138;55.082;38.804;2023-07-08T07:48:32;99718.34;;;19.80;100.00
74631;BME280;63138;55.082;38.804;2023-07-08T07:50:58;99727.81;;;19.84;100.00
74631;BME280;63138;55.082;38.804;2023-07-08T07:53:24;99689.84;;;19.86;100.00
74631;BME280;63138;55.082;38.804;2023-07-08T07:55:59;99693.56;;;19.80;100.00
74631;BME280;63138;55.082;38.804;2023-07-08T07:58:25;99694.91;;;19.78;100.00
74631;BME280;63138;55.082;38.804;2023-07-08T08:00:51;99697.66;;;19.78;100.00
74631;BME280;63138;55.082;38.804;2023-07-08T08:03:17;99673.69;;;19.66;100.00
74631;BME280;63138;55.082;38.804;2023-07-08T08:05:43;99674.63;;;19.72;100.00
74631;BME280;63138;55.082;38.804;2023-07-08T08:08:09;99672.75;;;19.61;100.00
74631;BME280;63138;55.082;38.804;2023-07-08T08:10:35;99664.97;;;19.58;100.00
74631;BME280;63138;55.082;38.804;2023-07-08T08:13:02;99676.44;;;19.66;100.00
74631;BME280;63138;55.082;38.804;2023-07-08T08:15:29;99687.72;;;19.65;100.00
74631;BME280;63138;55.082;38.804;2023-07-08T08:17:55;99675.13;;;19.69;100.00
74631;BME280;63138;55.082;38.804;2023-07-08T08:20:24;99669.13;;;19.72;100.00
74631;BME280;63138;55.082;38.804;2023-07-08T08:22:51;99671.75;;;19.79;100.00
74631;BME280;63138;55.082;38.804;2023-07-08T08:25:19;99666.47;;;19.89;100.00
74631;BME280;63138;55.082;38.804;2023-07-08T08:27:45;99695.16;;;20.05;100.00
74631;BME280;63138;55.082;38.804;2023-07-08T08:30:11;99670.13;;;20.07;100.00
74631;BME280;63138;55.082;38.804;2023-07-08T08:32:37;99660.50;;;20.09;100.00
74631;BME280;63138;55.082;38.804;2023-07-08T08:35:04;99655.53;;;20.23;100.00
74631;BME280;63138;55.082;38.804;2023-07-08T08:37:30;99650.19;;;20.16;100.00
74631;BME280;63138;55.082;38.804;2023-07-08T08:39:56;99643.44;;;20.24;100.00
74631;BME280;63138;55.082;38.804;2023-07-08T08:42:27;99637.94;;;20.24;100.00
74631;BME280;63138;55.082;38.804;2023-07-08T08:44:57;99679.00;;;20.25;100.00
74631;BME280;63138;55.082;38.804;2023-07-08T08:47:39;99657.81;;;20.26;100.00
74631;BME280;63138;55.082;38.804;2023-07-08T08:50:24;99656.09;;;20.37;100.00
74631;BME280;63138;55.082;38.804;2023-07-08T08:52:52;99629.34;;;20.37;100.00
74631;BME280;63138;55.082;38.804;2023-07-08T08:55:23;99625.16;;;20.35;100.00
74631;BME280;63138;55.082;38.804;2023-07-08T08:57:55;99619.72;;;20.40;100.00
74631;BME280;63138;55.082;38.804;2023-07-08T09:00:30;99618.81;;;20.34;100.00
74631;BME280;63138;55.082;38.804;2023-07-08T09:03:07;99604.09;;;20.29;100.00
74631;BME280;63138;55.082;38.804;2023-07-08T09:05:35;99632.75;;;20.28;100.00
74631;BME280;63138;55.082;38.804;2023-07-08T09:08:10;99608.78;;;20.28;100.00
74631;BME280;63138;55.082;38.804;2023-07-08T09:10:45;99598.59;;;20.29;100.00
74631;BME280;63138;55.082;38.804;2023-07-08T09:13:18;99573.78;;;20.29;100.00
74631;BME280;63138;55.082;38.804;2023-07-08T09:15:50;99587.91;;;20.32;100.00
74631;BME280;63138;55.082;38.804;2023-07-08T09:18:32;99555.31;;;20.29;100.00
74631;BME280;63138;55.082;38.804;2023-07-08T09:21:25;99561.50;;;20.19;100.00
74631;BME280;63138;55.082;38.804;2023-07-08T09:23:56;99551.47;;;20.13;100.00
74631;BME280;63138;55.082;38.804;2023-07-08T09:26:27;99523.56;;;20.10;100.00
74631;BME280;63138;55.082;38.804;2023-07-08T09:28:58;99534.25;;;20.06;100.00
74631;BME280;63138;55.082;38.804;2023-07-08T09:31:26;99548.28;;;20.04;100.00
74631;BME280;63138;55.082;38.804;2023-07-08T09:36:39;99507.28;;;20.08;100.00
74631;BME280;63138;55.082;38.804;2023-07-08T09:39:10;99518.75;;;20.17;100.00
74631;BME280;63138;55.082;38.804;2023-07-08T09:41:38;99522.22;;;20.12;100.00
74631;BME280;63138;55.082;38.804;2023-07-08T09:44:17;99500.84;;;20.19;100.00
74631;BME280;63138;55.082;38.804;2023-07-08T09:46:44;99496.34;;;20.30;100.00
74631;BME280;63138;55.082;38.804;2023-07-08T09:49:22;99494.66;;;20.46;100.00
74631;BME280;63138;55.082;38.804;2023-07-08T09:54:18;99473.75;;;20.67;100.00
74631;BME280;63138;55.082;38.804;2023-07-08T09:57:11;99473.69;;;20.84;100.00
74631;BME280;63138;55.082;38.804;2023-07-08T09:59:49;99461.03;;;20.66;100.00
74631;BME280;63138;55.082;38.804;2023-07-08T10:04:52;99453.88;;;20.87;100.00
74631;BME280;63138;55.082;38.804;2023-07-08T10:07:18;99447.97;;;21.00;100.00
74631;BME280;63138;55.082;38.804;2023-07-08T10:09:47;99452.44;;;21.07;100.00
74631;BME280;63138;55.082;38.804;2023-07-08T10:12:15;99444.81;;;21.14;100.00
74631;BME280;63138;55.082;38.804;2023-07-08T10:14:48;99436.69;;;21.29;100.00
74631;BME280;63138;55.082;38.804;2023-07-08T10:17:19;99428.66;;;21.50;100.00
74631;BME280;63138;55.082;38.804;2023-07-08T10:19:50;99425.72;;;21.62;100.00
74631;BME280;63138;55.082;38.804;2023-07-08T10:28:41;99402.16;;;21.81;100.00
74631;BME280;63138;55.082;38.804;2023-07-08T10:31:50;99393.91;;;21.86;100.00
74631;BME280;63138;55.082;38.804;2023-07-08T10:34:26;99405.47;;;21.83;100.00
74631;BME280;63138;55.082;38.804;2023-07-08T10:45:00;99399.59;;;22.12;100.00
74631;BME280;63138;55.082;38.804;2023-07-08T10:48:22;99396.84;;;22.12;100.00
74631;BME280;63138;55.082;38.804;2023-07-08T10:59:12;99375.69;;;22.28;100.00
74631;BME280;63138;55.082;38.804;2023-07-08T11:04:50;99338.81;;;22.17;100.00
74631;BME280;63138;55.082;38.804;2023-07-08T11:07:51;99319.47;;;22.17;100.00
74631;BME280;63138;55.082;38.804;2023-07-08T11:13:27;99254.03;;;22.38;100.00
74631;BME280;63138;55.082;38.804;2023-07-08T11:16:00;99208.34;;;22.25;100.00
74631;BME280;63138;55.082;38.804;2023-07-08T11:18:40;99163.38;;;22.40;100.00
74631;BME280;63138;55.082;38.804;2023-07-08T11:21:27;99139.28;;;22.36;100.00
74631;BME280;63138;55.082;38.804;2023-07-08T11:24:02;99096.16;;;22.65;100.00
74631;BME280;63138;55.082;38.804;2023-07-08T11:26:43;99053.53;;;22.77;100.00
74631;BME280;63138;55.082;38.804;2023-07-08T11:29:17;99024.75;;;22.78;100.00
74631;BME280;63138;55.082;38.804;2023-07-08T11:31:45;99002.59;;;22.78;100.00
74631;BME280;63138;55.082;38.804;2023-07-08T11:34:12;99009.28;;;22.66;100.00
74631;BME280;63138;55.082;38.804;2023-07-08T11:36:42;98990.19;;;22.70;100.00
74631;BME280;63138;55.082;38.804;2023-07-08T11:39:43;99023.38;;;22.75;100.00
74631;BME280;63138;55.082;38.804;2023-07-08T11:42:22;98971.63;;;22.76;100.00
74631;BME280;63138;55.082;38.804;2023-07-08T11:44:55;98974.13;;;22.82;100.00
74631;BME280;63138;55.082;38.804;2023-07-08T11:49:58;98963.91;;;22.73;100.00
74631;BME280;63138;55.082;38.804;2023-07-08T11:52:24;98984.63;;;22.85;100.00
74631;BME280;63138;55.082;38.804;2023-07-08T11:55:08;99004.56;;;22.77;100.00
74631;BME280;63138;55.082;38.804;2023-07-08T11:57:42;99033.91;;;22.73;100.00
74631;BME280;63138;55.082;38.804;2023-07-08T12:00:21;99046.63;;;22.74;100.00
74631;BME280;63138;55.082;38.804;2023-07-08T12:02:51;99081.75;;;22.63;100.00
74631;BME280;63138;55.082;38.804;2023-07-08T12:05:18;99118.00;;;22.72;100.00
74631;BME280;63138;55.082;38.804;2023-07-08T12:07:56;99149.00;;;22.79;100.00
74631;BME280;63138;55.082;38.804;2023-07-08T12:10:37;99181.13;;;22.85;100.00
74631;BME280;63138;55.082;38.804;2023-07-08T12:13:12;99214.88;;;22.93;100.00
74631;BME280;63138;55.082;38.804;2023-07-08T12:15:38;99261.97;;;23.13;100.00
74631;BME280;63138;55.082;38.804;2023-07-08T12:18:15;99303.53;;;23.23;100.00
74631;BME280;63138;55.082;38.804;2023-07-08T12:20:58;99355.88;;;23.40;100.00
74631;BME280;63138;55.082;38.804;2023-07-08T12:23:26;99388.28;;;23.35;100.00
74631;BME280;63138;55.082;38.804;2023-07-08T12:25:53;99397.97;;;23.27;100.00
74631;BME280;63138;55.082;38.804;2023-07-08T12:28:21;99419.84;;;23.23;100.00
74631;BME280;63138;55.082;38.804;2023-07-08T12:30:48;99426.13;;;23.03;100.00
74631;BME280;63138;55.082;38.804;2023-07-08T12:33:19;99449.59;;;22.96;100.00
74631;BME280;63138;55.082;38.804;2023-07-08T12:35:47;99475.84;;;22.83;100.00
74631;BME280;63138;55.082;38.804;2023-07-08T12:38:30;99514.84;;;22.81;100.00
74631;BME280;63138;55.082;38.804;2023-07-08T12:40:58;99551.91;;;22.75;100.00
74631;BME280;63138;55.082;38.804;2023-07-08T12:43:25;99541.31;;;22.62;100.00
74631;BME280;63138;55.082;38.804;2023-07-08T12:45:52;99739.97;;;22.65;100.00
74631;BME280;63138;55.082;38.804;2023-07-08T12:48:18;99853.69;;;22.41;100.00
74631;BME280;63138;55.082;38.804;2023-07-08T12:50:44;99867.66;;;22.12;100.00
74631;BME280;63138;55.082;38.804;2023-07-08T12:53:11;99684.06;;;21.86;100.00
74631;BME280;63138;55.082;38.804;2023-07-08T12:55:39;99700.94;;;21.68;100.00
74631;BME280;63138;55.082;38.804;2023-07-08T12:58:28;99700.25;;;21.38;100.00
74631;BME280;63138;55.082;38.804;2023-07-08T13:01:00;99730.97;;;21.25;100.00
74631;BME280;63138;55.082;38.804;2023-07-08T13:03:39;99730.41;;;21.23;100.00
74631;BME280;63138;55.082;38.804;2023-07-08T13:06:09;99733.31;;;21.16;100.00
74631;BME280;63138;55.082;38.804;2023-07-08T13:08:38;99726.97;;;21.16;100.00
74631;BME280;63138;55.082;38.804;2023-07-08T13:11:05;99730.72;;;21.10;100.00
74631;BME280;63138;55.082;38.804;2023-07-08T13:13:37;99730.97;;;21.08;100.00
74631;BME280;63138;55.082;38.804;2023-07-08T13:16:05;99728.66;;;21.00;100.00
74631;BME280;63138;55.082;38.804;2023-07-08T13:18:34;99714.50;;;20.96;100.00
74631;BME280;63138;55.082;38.804;2023-07-08T13:21:02;99707.47;;;21.06;100.00
74631;BME280;63138;55.082;38.804;2023-07-08T13:23:29;99707.22;;;21.07;100.00
74631;BME280;63138;55.082;38.804;2023-07-08T13:25:55;99708.34;;;21.28;100.00
74631;BME280;63138;55.082;38.804;2023-07-08T13:28:27;99706.13;;;21.25;100.00
74631;BME280;63138;55.082;38.804;2023-07-08T13:31:02;99698.25;;;21.17;100.00
74631;BME280;63138;55.082;38.804;2023-07-08T13:33:32;99684.91;;;21.09;100.00
74631;BME280;63138;55.082;38.804;2023-07-08T13:36:02;99688.47;;;21.26;100.00
74631;BME280;63138;55.082;38.804;2023-07-08T13:38:33;99673.31;;;21.46;100.00
74631;BME280;63138;55.082;38.804;2023-07-08T13:41:02;99668.19;;;21.54;100.00
74631;BME280;63138;55.082;38.804;2023-07-08T13:43:32;99672.41;;;21.62;100.00
74631;BME280;63138;55.082;38.804;2023-07-08T13:45:59;99666.38;;;21.65;100.00
74631;BME280;63138;55.082;38.804;2023-07-08T13:50:58;99662.59;;;21.32;100.00
74631;BME280;63138;55.082;38.804;2023-07-08T13:53:32;99662.59;;;21.32;100.00